Hartford, Connecticut
Traffic Map
Current Weather Conditions
Hartford, Connecticut
Clear
Clear
14°
Feels Like: 14°
Wind Chill: 14° Ceiling: Unl
Heat Index: 14° Visibility: 10mi
Dew Point: Wind: 7mph
Humidity: 67% Direction: 240° (WSW)
Pressure: 30.2in Gusts: 0mph
Raw Report DataKHFD 150153Z AUTO 24006KT 10SM CLR 14/08 A3020 RMK AO2 SLP227 T01440083
Traffic Incident Summary
Active as of:
Severity:
Category:
InformationThere was an issue retrieving the traffic information for this location. Please try a different location or try again shortly.
Advertisements
Track Severe Weather on mobile